createdAt,value
2022-11-21T00:00:53.338Z,50.877155
2022-11-21T00:01:53.379Z,50.877148
2022-11-21T00:02:53.320Z,50.877144
2022-11-21T00:03:53.301Z,50.877140
2022-11-21T00:04:53.277Z,50.877151
2022-11-21T00:05:53.280Z,50.877159
2022-11-21T00:06:53.285Z,50.877151
2022-11-21T00:07:53.321Z,50.877167
2022-11-21T00:08:53.247Z,50.877163
2022-11-21T00:09:53.226Z,50.877167
2022-11-21T00:10:53.230Z,50.877167
2022-11-21T00:11:53.210Z,50.877174
2022-11-21T00:12:53.210Z,50.877174
2022-11-21T00:13:53.235Z,50.877167
2022-11-21T00:14:53.226Z,50.877140
2022-11-21T00:15:53.206Z,50.877148
2022-11-21T00:16:57.191Z,50.877174
2022-11-21T00:17:54.167Z,50.877159
2022-11-21T00:18:53.151Z,50.877151
2022-11-21T00:19:53.127Z,50.877167
2022-11-21T00:20:53.132Z,50.877178
2022-11-21T00:21:53.150Z,50.877178
2022-11-21T00:22:53.111Z,50.877193
2022-11-21T00:23:53.094Z,50.877174
2022-11-21T00:24:54.435Z,50.877201
2022-11-21T00:25:53.086Z,50.877209
2022-11-21T00:26:53.078Z,50.877182
2022-11-21T00:27:53.070Z,50.877171
2022-11-21T00:28:53.074Z,50.877186
2022-11-21T00:29:53.062Z,50.877190
2022-11-21T00:30:53.019Z,50.877171
2022-11-21T00:31:53.052Z,50.877155
2022-11-21T00:32:53.006Z,50.877193
2022-11-21T00:33:53.025Z,50.877197
2022-11-21T00:34:53.008Z,50.877186
2022-11-21T00:35:52.987Z,50.877171
2022-11-21T00:36:52.966Z,50.877163
2022-11-21T00:37:52.998Z,50.877163
2022-11-21T00:38:52.958Z,50.877167
2022-11-21T00:39:52.957Z,50.877182
2022-11-21T00:40:53.926Z,50.877205
2022-11-21T00:41:52.942Z,50.877209
2022-11-21T00:42:52.996Z,50.877197
2022-11-21T00:43:52.928Z,50.877182
2022-11-21T00:44:52.891Z,50.877171
2022-11-21T00:45:52.899Z,50.877159
2022-11-21T00:46:52.880Z,50.877178
2022-11-21T00:47:52.862Z,50.877167
2022-11-21T00:48:52.880Z,50.877178
2022-11-21T00:49:52.855Z,50.877178
2022-11-21T00:50:52.834Z,50.877190
2022-11-21T00:51:52.833Z,50.877155
2022-11-21T00:52:52.829Z,50.877174
2022-11-21T00:53:52.847Z,50.877190
2022-11-21T00:54:52.805Z,50.877182
2022-11-21T00:55:52.790Z,50.877178
2022-11-21T00:56:52.790Z,50.877197
2022-11-21T00:57:52.774Z,50.877209
2022-11-21T00:58:52.778Z,50.877213
2022-11-21T00:59:52.766Z,50.877205
2022-11-21T01:00:52.822Z,50.877186
2022-11-21T01:01:52.736Z,50.877155
2022-11-21T01:02:52.713Z,50.877182
2022-11-21T01:03:52.749Z,50.877216
2022-11-21T01:04:52.704Z,50.877197
2022-11-21T01:05:52.715Z,50.877182
2022-11-21T01:06:52.697Z,50.877190
2022-11-21T01:07:52.709Z,50.877178
2022-11-21T01:08:52.670Z,50.877144
2022-11-21T01:09:52.691Z,50.877159
2022-11-21T01:10:52.686Z,50.877209
2022-11-21T01:11:52.677Z,50.877136
2022-11-21T01:12:52.636Z,50.877125
2022-11-21T01:13:52.666Z,50.877201
2022-11-21T01:14:52.628Z,50.877220
2022-11-21T01:15:52.637Z,50.877201
2022-11-21T01:16:52.650Z,50.877197
2022-11-21T01:17:52.594Z,50.877247
2022-11-21T01:18:52.603Z,50.877224
2022-11-21T01:19:52.598Z,50.877270
2022-11-21T01:20:52.563Z,50.877277
2022-11-21T01:21:52.548Z,50.877239
2022-11-21T01:22:52.565Z,50.877190
2022-11-21T01:23:52.506Z,50.877121
2022-11-21T01:24:52.549Z,50.877186
2022-11-21T01:25:52.511Z,50.877155
2022-11-21T01:26:52.507Z,50.877182
2022-11-21T01:27:52.601Z,50.877182
2022-11-21T01:28:52.482Z,50.877163
2022-11-21T01:29:52.479Z,50.877167
2022-11-21T01:30:52.475Z,50.877171
2022-11-21T01:31:52.453Z,50.877155
2022-11-21T01:32:52.442Z,50.877186
2022-11-21T01:33:52.441Z,50.877205
2022-11-21T01:34:52.419Z,50.877193
2022-11-21T01:35:52.436Z,50.877182
2022-11-21T01:36:52.401Z,50.877186
2022-11-21T01:37:52.423Z,50.877182
2022-11-21T01:38:52.379Z,50.877201
2022-11-21T01:39:52.361Z,50.877201
2022-11-21T01:40:52.349Z,50.877205
2022-11-21T01:41:52.415Z,50.877178
2022-11-21T01:42:52.356Z,50.877193
2022-11-21T01:43:52.330Z,50.877174
2022-11-21T01:44:52.338Z,50.877167
2022-11-21T01:45:52.309Z,50.877171
2022-11-21T01:46:52.359Z,50.877193
2022-11-21T01:47:52.306Z,50.877213
2022-11-21T01:48:52.301Z,50.877213
2022-11-21T01:49:52.271Z,50.877197
2022-11-21T01:50:52.295Z,50.877186
2022-11-21T01:51:52.304Z,50.877205
2022-11-21T01:52:52.285Z,50.877262
2022-11-21T01:53:52.239Z,50.877239
2022-11-21T01:54:52.244Z,50.877213
2022-11-21T01:55:52.217Z,50.877235
2022-11-21T01:56:52.248Z,50.877254
2022-11-21T01:57:52.250Z,50.877228
2022-11-21T01:58:52.178Z,50.877151
2022-11-21T01:59:52.187Z,50.877151
2022-11-21T02:00:52.286Z,50.877178
2022-11-21T02:01:52.159Z,50.877205
2022-11-21T02:02:52.195Z,50.877239
2022-11-21T02:03:52.164Z,50.877213
2022-11-21T02:04:52.127Z,50.877205
2022-11-21T02:05:52.128Z,50.877193
2022-11-21T02:06:52.117Z,50.877251
2022-11-21T02:07:52.127Z,50.877224
2022-11-21T02:08:52.079Z,50.877213
2022-11-21T02:09:53.107Z,50.877174
2022-11-21T02:10:52.090Z,50.877216
2022-11-21T02:11:52.109Z,50.877186
2022-11-21T02:12:52.061Z,50.877193
2022-11-21T02:13:52.074Z,50.877243
2022-11-21T02:14:52.043Z,50.877209
2022-11-21T02:15:52.067Z,50.877182
2022-11-21T02:16:52.016Z,50.877193
2022-11-21T02:17:51.996Z,50.877285
2022-11-21T02:18:52.065Z,50.877243
2022-11-21T02:19:52.024Z,50.877239
2022-11-21T02:20:52.967Z,50.877228
2022-11-21T02:21:51.966Z,50.877228
2022-11-21T02:22:51.964Z,50.877258
2022-11-21T02:23:54.295Z,50.877228
2022-11-21T02:24:52.974Z,50.877205
2022-11-21T02:25:51.920Z,50.877190
2022-11-21T02:26:51.925Z,50.877190
2022-11-21T02:27:51.903Z,50.877224
2022-11-21T02:28:51.869Z,50.877224
2022-11-21T02:29:51.895Z,50.877224
2022-11-21T02:30:51.891Z,50.877224
2022-11-21T02:31:51.875Z,50.877224
2022-11-21T02:32:51.877Z,50.877216
2022-11-21T02:33:51.846Z,50.877216
2022-11-21T02:34:51.818Z,50.877216
2022-11-21T02:35:51.845Z,50.877216
2022-11-21T02:36:51.830Z,50.877201
2022-11-21T02:37:51.806Z,50.877201
2022-11-21T02:38:51.821Z,50.877201
2022-11-21T02:39:51.811Z,50.877201
2022-11-21T02:40:51.765Z,50.877201
2022-11-21T02:41:51.767Z,50.877201
2022-11-21T02:42:52.928Z,50.877163
2022-11-21T02:43:52.768Z,50.877163
2022-11-21T02:44:51.724Z,50.877163
2022-11-21T02:45:51.717Z,50.877163
2022-11-21T02:46:51.729Z,50.877163
2022-11-21T02:47:51.725Z,50.877163
2022-11-21T02:48:51.685Z,50.877163
2022-11-21T02:49:51.695Z,50.877163
2022-11-21T02:50:51.698Z,50.877163
2022-11-21T02:51:51.662Z,50.877163
2022-11-21T02:52:51.664Z,50.877163
2022-11-21T02:53:51.662Z,50.877163
2022-11-21T02:54:51.657Z,50.877220
2022-11-21T02:55:51.631Z,50.877216
2022-11-21T02:56:51.639Z,50.877205
2022-11-21T02:57:51.613Z,50.877205
2022-11-21T02:58:51.625Z,50.877171
2022-11-21T02:59:51.592Z,50.877205
2022-11-21T03:00:51.683Z,50.877201
2022-11-21T03:01:51.580Z,50.877205
2022-11-21T03:02:51.580Z,50.877205
2022-11-21T03:04:23.384Z,50.877201
2022-11-21T03:04:51.491Z,50.877163
2022-11-21T03:05:51.480Z,50.877197
2022-11-21T03:06:51.463Z,50.877201
2022-11-21T03:07:51.485Z,50.877201
2022-11-21T03:08:51.448Z,50.877171
2022-11-21T03:09:51.435Z,50.877182
2022-11-21T03:10:51.428Z,50.877182
2022-11-21T03:11:51.423Z,50.877182
2022-11-21T03:12:51.426Z,50.877182
2022-11-21T03:13:51.390Z,50.877182
2022-11-21T03:14:51.383Z,50.877182
2022-11-21T03:15:51.372Z,50.877182
2022-11-21T03:16:51.365Z,50.877182
2022-11-21T03:17:51.354Z,50.877174
2022-11-21T03:18:51.361Z,50.877155
2022-11-21T03:19:51.344Z,50.877155
2022-11-21T03:20:51.331Z,50.877209
2022-11-21T03:21:51.314Z,50.877171
2022-11-21T03:22:51.312Z,50.877182
2022-11-21T03:23:51.330Z,50.877167
2022-11-21T03:24:51.290Z,50.877197
2022-11-21T03:25:51.286Z,50.877102
2022-11-21T03:26:51.279Z,50.877144
2022-11-21T03:27:51.261Z,50.877148
2022-11-21T03:28:51.247Z,50.877159
2022-11-21T03:29:51.263Z,50.877178
2022-11-21T03:30:51.236Z,50.877178
2022-11-21T03:31:51.233Z,50.877201
2022-11-21T03:32:51.222Z,50.877186
2022-11-21T03:33:51.200Z,50.877235
2022-11-21T03:34:51.214Z,50.877243
2022-11-21T03:35:52.188Z,50.877193
2022-11-21T03:36:51.173Z,50.877209
2022-11-21T03:37:51.174Z,50.877167
2022-11-21T03:38:51.159Z,50.877197
2022-11-21T03:39:51.179Z,50.877129
2022-11-21T03:40:51.143Z,50.877171
2022-11-21T03:41:51.187Z,50.877205
2022-11-21T03:42:51.137Z,50.877205
2022-11-21T03:43:51.127Z,50.877224
2022-11-21T03:44:51.114Z,50.877235
2022-11-21T03:45:51.121Z,50.877247
2022-11-21T03:46:51.092Z,50.877239
2022-11-21T03:47:51.075Z,50.877251
2022-11-21T03:48:51.066Z,50.877277
2022-11-21T03:49:51.052Z,50.877312
2022-11-21T03:50:51.060Z,50.877251
2022-11-21T03:51:51.042Z,50.877274
2022-11-21T03:52:51.028Z,50.877285
2022-11-21T03:53:51.018Z,50.877228
2022-11-21T03:54:51.003Z,50.877193
2022-11-21T03:55:51.011Z,50.877220
2022-11-21T03:56:51.006Z,50.877232
2022-11-21T03:57:50.997Z,50.877155
2022-11-21T03:58:50.975Z,50.877197
2022-11-21T03:59:50.992Z,50.877193
2022-11-21T04:00:50.957Z,50.877186
2022-11-21T04:01:51.003Z,50.877136
2022-11-21T04:02:50.941Z,50.877182
2022-11-21T04:03:50.918Z,50.877254
2022-11-21T04:04:50.913Z,50.877232
2022-11-21T04:05:50.897Z,50.877182
2022-11-21T04:06:50.914Z,50.877171
2022-11-21T04:07:50.885Z,50.877232
2022-11-21T04:08:50.875Z,50.877247
2022-11-21T04:09:50.885Z,50.877247
2022-11-21T04:10:50.844Z,50.877186
2022-11-21T04:11:50.835Z,50.877224
2022-11-21T04:12:50.832Z,50.877258
2022-11-21T04:13:50.824Z,50.877167
2022-11-21T04:14:50.824Z,50.877132
2022-11-21T04:15:50.811Z,50.877186
2022-11-21T04:16:50.787Z,50.877129
2022-11-21T04:17:50.791Z,50.877094
2022-11-21T04:18:50.793Z,50.877121
2022-11-21T04:19:50.790Z,50.877300
2022-11-21T04:20:50.757Z,50.877213
2022-11-21T04:21:50.754Z,50.877247
2022-11-21T04:22:50.728Z,50.877247
2022-11-21T04:23:50.711Z,50.877205
2022-11-21T04:24:50.699Z,50.877216
2022-11-21T04:25:50.699Z,50.877247
2022-11-21T04:26:50.712Z,50.877251
2022-11-21T04:27:50.694Z,50.877251
2022-11-21T04:28:50.671Z,50.877251
2022-11-21T04:29:50.664Z,50.877251
2022-11-21T04:30:54.465Z,50.877251
2022-11-21T04:31:50.644Z,50.877251
2022-11-21T04:32:50.656Z,50.877251
2022-11-21T04:33:50.627Z,50.877251
2022-11-21T04:34:50.610Z,50.877251
2022-11-21T04:35:50.609Z,50.877216
2022-11-21T04:36:50.641Z,50.877254
2022-11-21T04:37:50.592Z,50.877270
2022-11-21T04:38:50.609Z,50.877258
2022-11-21T04:39:50.559Z,50.877251
2022-11-21T04:40:50.562Z,50.877201
2022-11-21T04:41:50.540Z,50.877155
2022-11-21T04:42:50.536Z,50.877220
2022-11-21T04:43:50.546Z,50.877224
2022-11-21T04:44:50.521Z,50.877216
2022-11-21T04:45:50.509Z,50.877205
2022-11-21T04:46:50.497Z,50.877205
2022-11-21T04:47:50.485Z,50.877190
2022-11-21T04:48:50.476Z,50.877201
2022-11-21T04:49:50.478Z,50.877220
2022-11-21T04:50:50.463Z,50.877205
2022-11-21T04:51:50.444Z,50.877197
2022-11-21T04:52:50.453Z,50.877178
2022-11-21T04:53:50.420Z,50.877209
2022-11-21T04:54:50.441Z,50.877209
2022-11-21T04:55:50.422Z,50.877220
2022-11-21T04:56:50.415Z,50.877197
2022-11-21T04:57:50.396Z,50.877182
2022-11-21T04:58:50.391Z,50.877220
2022-11-21T04:59:50.370Z,50.877213
2022-11-21T05:00:50.428Z,50.877213
2022-11-21T05:01:50.401Z,50.877182
2022-11-21T05:02:50.337Z,50.877205
2022-11-21T05:03:50.327Z,50.877205
2022-11-21T05:04:50.337Z,50.877201
2022-11-21T05:05:50.305Z,50.877186
2022-11-21T05:06:50.317Z,50.877190
2022-11-21T05:07:50.285Z,50.877178
2022-11-21T05:08:53.457Z,50.877193
2022-11-21T05:09:51.260Z,50.877224
2022-11-21T05:10:50.278Z,50.877209
2022-11-21T05:11:50.245Z,50.877232
2022-11-21T05:12:50.255Z,50.877277
2022-11-21T05:13:50.232Z,50.877251
2022-11-21T05:14:50.218Z,50.877220
2022-11-21T05:15:50.213Z,50.877209
2022-11-21T05:16:50.207Z,50.877125
2022-11-21T05:17:50.253Z,50.877171
2022-11-21T05:18:50.195Z,50.877190
2022-11-21T05:19:50.172Z,50.877205
2022-11-21T05:20:50.163Z,50.877201
2022-11-21T05:21:50.156Z,50.877232
2022-11-21T05:22:50.144Z,50.877216
2022-11-21T05:23:50.145Z,50.877209
2022-11-21T05:24:50.131Z,50.877182
2022-11-21T05:25:50.132Z,50.877209
2022-11-21T05:26:50.128Z,50.877224
2022-11-21T05:27:50.101Z,50.877209
2022-11-21T05:28:50.133Z,50.877155
2022-11-21T05:29:50.095Z,50.877247
2022-11-21T05:30:50.070Z,50.877254
2022-11-21T05:31:50.067Z,50.877224
2022-11-21T05:32:50.049Z,50.877262
2022-11-21T05:33:50.065Z,50.877243
2022-11-21T05:34:50.028Z,50.877228
2022-11-21T05:35:50.021Z,50.877216
2022-11-21T05:36:50.016Z,50.877254
2022-11-21T05:37:49.997Z,50.877243
2022-11-21T05:38:49.989Z,50.877277
2022-11-21T05:39:49.994Z,50.877224
2022-11-21T05:40:49.975Z,50.877197
2022-11-21T05:41:49.971Z,50.877274
2022-11-21T05:42:49.951Z,50.877274
2022-11-21T05:43:49.956Z,50.877274
2022-11-21T05:44:49.946Z,50.877232
2022-11-21T05:45:49.919Z,50.877201
2022-11-21T05:46:49.912Z,50.877193
2022-11-21T05:47:49.921Z,50.877220
2022-11-21T05:48:49.917Z,50.877197
2022-11-21T05:49:49.886Z,50.877178
2022-11-21T05:50:49.897Z,50.877140
2022-11-21T05:51:49.873Z,50.877171
2022-11-21T05:52:49.859Z,50.877224
2022-11-21T05:53:49.853Z,50.877243
2022-11-21T05:54:49.849Z,50.877262
2022-11-21T05:55:49.827Z,50.877174
2022-11-21T05:56:49.837Z,50.877102
2022-11-21T05:57:49.807Z,50.877186
2022-11-21T05:58:49.823Z,50.877239
2022-11-21T05:59:49.799Z,50.877224
2022-11-21T06:00:49.780Z,50.877193
2022-11-21T06:01:49.782Z,50.877193
2022-11-21T06:02:49.811Z,50.877224
2022-11-21T06:03:49.809Z,50.877209
2022-11-21T06:04:49.743Z,50.877243
2022-11-21T06:05:49.731Z,50.877228
2022-11-21T06:06:49.720Z,50.877216
2022-11-21T06:07:49.709Z,50.877190
2022-11-21T06:08:49.723Z,50.877209
2022-11-21T06:09:49.691Z,50.877213
2022-11-21T06:10:49.685Z,50.877258
2022-11-21T06:11:49.708Z,50.877178
2022-11-21T06:12:49.657Z,50.877216
2022-11-21T06:13:49.654Z,50.877201
2022-11-21T06:14:49.642Z,50.877247
2022-11-21T06:15:49.633Z,50.877239
2022-11-21T06:16:49.641Z,50.877209
2022-11-21T06:17:49.622Z,50.877174
2022-11-21T06:18:50.800Z,50.877182
2022-11-21T06:19:49.598Z,50.877228
2022-11-21T06:20:49.610Z,50.877239
2022-11-21T06:21:49.597Z,50.877224
2022-11-21T06:22:49.596Z,50.877216
2022-11-21T06:23:49.552Z,50.877190
2022-11-21T06:24:49.546Z,50.877201
2022-11-21T06:25:49.575Z,50.877193
2022-11-21T06:26:49.523Z,50.877190
2022-11-21T06:27:49.531Z,50.877201
2022-11-21T06:28:49.502Z,50.877213
2022-11-21T06:29:49.503Z,50.877220
2022-11-21T06:30:49.518Z,50.877232
2022-11-21T06:31:49.480Z,50.877193
2022-11-21T06:32:49.515Z,50.877190
2022-11-21T06:33:49.462Z,50.877220
2022-11-21T06:34:49.447Z,50.877232
2022-11-21T06:35:49.453Z,50.877228
2022-11-21T06:36:49.445Z,50.877220
2022-11-21T06:37:53.340Z,50.877243
2022-11-21T06:38:50.404Z,50.877220
2022-11-21T06:39:49.396Z,50.877197
2022-11-21T06:40:49.380Z,50.877228
2022-11-21T06:41:49.399Z,50.877239
2022-11-21T06:42:49.373Z,50.877228
2022-11-21T06:43:49.376Z,50.877239
2022-11-21T06:44:49.347Z,50.877213
2022-11-21T06:45:49.371Z,50.877247
2022-11-21T06:46:51.512Z,50.877216
2022-11-21T06:47:50.316Z,50.877197
2022-11-21T06:48:49.315Z,50.877186
2022-11-21T06:49:49.296Z,50.877266
2022-11-21T06:50:49.305Z,50.877228
2022-11-21T06:51:49.341Z,50.877254
2022-11-21T06:52:49.266Z,50.877220
2022-11-21T06:53:49.283Z,50.877224
2022-11-21T06:54:49.248Z,50.877243
2022-11-21T06:55:49.254Z,50.877243
2022-11-21T06:56:49.231Z,50.877251
2022-11-21T06:57:49.225Z,50.877197
2022-11-21T06:58:49.217Z,50.877251
2022-11-21T06:59:49.202Z,50.877213
2022-11-21T07:00:49.213Z,50.877235
2022-11-21T07:01:49.247Z,50.877266
2022-11-21T07:02:49.171Z,50.877232
2022-11-21T07:03:49.161Z,50.877220
2022-11-21T07:04:49.152Z,50.877201
2022-11-21T07:05:49.141Z,50.877163
2022-11-21T07:06:49.152Z,50.877148
2022-11-21T07:07:49.126Z,50.877171
2022-11-21T07:09:00.070Z,50.877186
2022-11-21T07:09:51.327Z,50.877190
2022-11-21T07:11:17.727Z,50.877209
2022-11-21T07:11:49.092Z,50.877220
2022-11-21T07:12:49.086Z,50.877197
2022-11-21T07:13:49.086Z,50.877186
2022-11-21T07:14:49.067Z,50.877193
2022-11-21T07:15:49.065Z,50.877197
2022-11-21T07:16:49.072Z,50.877182
2022-11-21T07:17:49.036Z,50.877171
2022-11-21T07:18:49.013Z,50.877151
2022-11-21T07:19:49.006Z,50.877144
2022-11-21T07:20:49.000Z,50.877220
2022-11-21T07:21:48.985Z,50.877270
2022-11-21T07:22:49.001Z,50.877182
2022-11-21T07:23:48.980Z,50.877110
2022-11-21T07:24:48.977Z,50.877159
2022-11-21T07:25:48.963Z,50.877213
2022-11-21T07:26:48.937Z,50.877121
2022-11-21T07:27:48.926Z,50.877106
2022-11-21T07:28:48.914Z,50.877205
2022-11-21T07:29:48.949Z,50.877132
2022-11-21T07:30:48.896Z,50.877148
2022-11-21T07:31:48.888Z,50.877186
2022-11-21T07:32:48.883Z,50.877182
2022-11-21T07:33:48.881Z,50.877094
2022-11-21T07:34:48.894Z,50.877140
2022-11-21T07:35:48.835Z,50.877140
2022-11-21T07:36:48.836Z,50.877228
2022-11-21T07:37:48.818Z,50.877056
2022-11-21T07:38:48.807Z,50.877174
2022-11-21T07:39:48.821Z,50.877213
2022-11-21T07:40:48.801Z,50.877140
2022-11-21T07:41:48.804Z,50.877182
2022-11-21T07:42:48.788Z,50.877159
2022-11-21T07:43:48.770Z,50.877190
2022-11-21T07:44:48.760Z,50.877186
2022-11-21T07:45:48.752Z,50.877197
2022-11-21T07:46:48.750Z,50.877190
2022-11-21T07:47:48.729Z,50.877159
2022-11-21T07:48:48.723Z,50.877102
2022-11-21T07:49:48.709Z,50.877129
2022-11-21T07:50:48.724Z,50.877117
2022-11-21T07:51:48.711Z,50.877174
2022-11-21T07:52:48.688Z,50.877182
2022-11-21T07:53:48.672Z,50.877167
2022-11-21T07:54:48.662Z,50.877140
2022-11-21T07:55:48.697Z,50.877136
2022-11-21T07:56:48.669Z,50.877144
2022-11-21T07:57:48.640Z,50.877155
2022-11-21T07:58:48.638Z,50.877163
2022-11-21T07:59:48.619Z,50.877151
2022-11-21T08:00:48.605Z,50.877129
2022-11-21T08:01:48.599Z,50.877129
2022-11-21T08:02:48.589Z,50.877132
2022-11-21T08:03:48.602Z,50.877151
2022-11-21T08:04:48.576Z,50.877159
2022-11-21T08:05:48.630Z,50.877159
2022-11-21T08:06:48.550Z,50.877155
2022-11-21T08:07:48.530Z,50.877148
2022-11-21T08:08:48.548Z,50.877132
2022-11-21T08:09:48.525Z,50.877159
2022-11-21T08:10:48.531Z,50.877171
2022-11-21T08:11:48.526Z,50.877167
2022-11-21T08:12:48.495Z,50.877163
2022-11-21T08:13:48.481Z,50.877148
2022-11-21T08:14:48.487Z,50.877167
2022-11-21T08:15:48.486Z,50.877155
2022-11-21T08:16:48.464Z,50.877159
2022-11-21T08:17:48.458Z,50.877159
2022-11-21T08:18:48.427Z,50.877159
2022-11-21T08:19:48.434Z,50.877171
2022-11-21T08:20:48.432Z,50.877163
2022-11-21T08:21:48.413Z,50.877151
2022-11-21T08:22:48.394Z,50.877163
2022-11-21T08:23:48.477Z,50.877163
2022-11-21T08:24:48.385Z,50.877163
2022-11-21T08:25:48.379Z,50.877125
2022-11-21T08:26:48.353Z,50.877174
2022-11-21T08:27:48.364Z,50.877182
2022-11-21T08:28:48.337Z,50.877151
2022-11-21T08:29:48.326Z,50.877148
2022-11-21T08:30:48.330Z,50.877167
2022-11-21T08:31:48.312Z,50.877159
2022-11-21T08:32:48.318Z,50.877155
2022-11-21T08:33:48.291Z,50.877144
2022-11-21T08:34:48.275Z,50.877144
2022-11-21T08:35:48.294Z,50.877151
2022-11-21T08:36:48.267Z,50.877155
2022-11-21T08:37:48.257Z,50.877159
2022-11-21T08:38:48.235Z,50.877136
2022-11-21T08:39:48.231Z,50.877148
2022-11-21T08:40:48.225Z,50.877163
2022-11-21T08:41:48.204Z,50.877151
2022-11-21T08:42:48.195Z,50.877144
2022-11-21T08:43:48.206Z,50.877151
2022-11-21T08:44:48.169Z,50.877140
2022-11-21T08:45:48.178Z,50.877140
2022-11-21T08:46:48.163Z,50.877148
2022-11-21T08:47:48.138Z,50.877155
2022-11-21T08:48:48.138Z,50.877155
2022-11-21T08:49:48.151Z,50.877148
2022-11-21T08:50:48.144Z,50.877151
2022-11-21T08:51:48.096Z,50.877151
2022-11-21T08:52:48.108Z,50.877129
2022-11-21T08:53:48.101Z,50.877140
2022-11-21T08:54:48.083Z,50.877136
2022-11-21T08:55:48.079Z,50.877178
2022-11-21T08:56:48.073Z,50.877167
2022-11-21T08:57:48.042Z,50.877186
2022-11-21T08:58:48.037Z,50.877163
2022-11-21T08:59:48.033Z,50.877182
2022-11-21T09:00:48.031Z,50.877167
2022-11-21T09:01:48.030Z,50.877167
2022-11-21T09:02:47.998Z,50.877159
2022-11-21T09:03:48.017Z,50.877163
2022-11-21T09:05:19.903Z,50.877163
2022-11-21T09:05:48.013Z,50.877159
2022-11-21T09:06:48.161Z,50.877167
2022-11-21T09:07:48.049Z,50.877167
2022-11-21T09:08:48.065Z,50.877171
2022-11-21T09:09:47.965Z,50.877151
2022-11-21T09:10:47.966Z,50.877163
2022-11-21T09:11:47.968Z,50.877167
2022-11-21T09:12:47.962Z,50.877174
2022-11-21T09:13:47.968Z,50.877193
2022-11-21T09:14:47.938Z,50.877182
2022-11-21T09:15:48.041Z,50.877190
2022-11-21T09:16:48.929Z,50.877182
2022-11-21T09:17:48.002Z,50.877171
2022-11-21T09:18:48.915Z,50.877197
2022-11-21T09:19:47.878Z,50.877178
2022-11-21T09:20:47.960Z,50.877167
2022-11-21T09:21:47.876Z,50.877155
2022-11-21T09:22:47.847Z,50.877159
2022-11-21T09:23:47.859Z,50.877151
2022-11-21T09:24:47.829Z,50.877151
2022-11-21T09:25:47.846Z,50.877201
2022-11-21T09:26:47.825Z,50.877174
2022-11-21T09:27:47.830Z,50.877106
2022-11-21T09:28:47.796Z,50.877193
2022-11-21T09:29:53.671Z,50.877285
2022-11-21T09:30:47.799Z,50.877232
2022-11-21T09:31:47.760Z,50.877155
2022-11-21T09:32:47.751Z,50.877148
2022-11-21T09:33:49.726Z,50.877201
2022-11-21T09:34:49.732Z,50.877167
2022-11-21T09:35:48.047Z,50.877132
2022-11-21T09:36:48.719Z,50.877167
2022-11-21T09:37:47.731Z,50.877087
2022-11-21T09:38:47.719Z,50.877102
2022-11-21T09:39:48.943Z,50.877110
2022-11-21T09:40:47.712Z,50.877193
2022-11-21T09:41:47.686Z,50.877197
2022-11-21T09:42:47.691Z,50.877258
2022-11-21T09:43:51.752Z,50.877232
2022-11-21T09:44:48.652Z,50.877213
2022-11-21T09:45:47.670Z,50.877235
2022-11-21T09:46:47.702Z,50.877323
2022-11-21T09:47:47.637Z,50.877285
2022-11-21T09:48:47.651Z,50.877285
2022-11-21T09:49:47.587Z,50.877228
2022-11-21T09:50:53.409Z,50.877239
2022-11-21T09:51:49.625Z,50.877235
2022-11-21T09:52:47.579Z,50.877342
2022-11-21T09:53:47.596Z,50.877411
2022-11-21T09:54:48.136Z,50.877411
2022-11-21T09:55:47.566Z,50.877125
2022-11-21T09:56:47.516Z,50.877045
2022-11-21T09:57:47.520Z,50.877048
2022-11-21T09:58:47.552Z,50.877083
2022-11-21T09:59:47.535Z,50.877060
2022-11-21T10:00:47.570Z,50.877079
2022-11-21T10:01:47.469Z,50.876995
2022-11-21T10:02:47.465Z,50.877060
2022-11-21T10:03:47.652Z,50.877098
2022-11-21T10:04:47.460Z,50.877075
2022-11-21T10:05:47.461Z,50.877144
2022-11-21T10:06:47.442Z,50.877197
2022-11-21T10:07:47.518Z,50.877220
2022-11-21T10:08:48.064Z,50.877178
2022-11-21T10:09:48.222Z,50.877110
2022-11-21T10:10:47.429Z,50.877148
2022-11-21T10:11:48.073Z,50.877163
2022-11-21T10:12:47.368Z,50.877125
2022-11-21T10:13:47.434Z,50.877087
2022-11-21T10:14:48.106Z,50.877132
2022-11-21T10:15:47.333Z,50.877216
2022-11-21T10:16:47.353Z,50.877163
2022-11-21T10:17:48.145Z,50.877110
2022-11-21T10:18:47.335Z,50.877129
2022-11-21T10:19:47.333Z,50.877144
2022-11-21T10:20:48.273Z,50.877213
2022-11-21T10:21:47.297Z,50.877148
2022-11-21T10:22:47.326Z,50.877125
2022-11-21T10:23:47.270Z,50.877026
2022-11-21T10:24:47.252Z,50.877026
2022-11-21T10:25:47.317Z,50.877151
2022-11-21T10:26:47.246Z,50.877243
2022-11-21T10:27:47.279Z,50.877182
2022-11-21T10:28:47.237Z,50.877102
2022-11-21T10:29:47.211Z,50.877125
2022-11-21T10:30:47.201Z,50.877178
2022-11-21T10:31:47.193Z,50.877159
2022-11-21T10:32:47.231Z,50.877155
2022-11-21T10:33:47.229Z,50.877239
2022-11-21T10:34:47.173Z,50.877201
2022-11-21T10:35:47.169Z,50.877125
2022-11-21T10:36:47.140Z,50.877144
2022-11-21T10:37:47.149Z,50.877174
2022-11-21T10:38:47.162Z,50.877163
2022-11-21T10:39:47.136Z,50.877205
2022-11-21T10:40:47.141Z,50.877117
2022-11-21T10:41:47.099Z,50.877132
2022-11-21T10:42:47.072Z,50.877079
2022-11-21T10:43:47.067Z,50.877186
2022-11-21T10:44:47.113Z,50.877148
2022-11-21T10:45:47.033Z,50.877174
2022-11-21T10:46:47.036Z,50.877155
2022-11-21T10:47:47.078Z,50.877171
2022-11-21T10:48:47.044Z,50.877087
2022-11-21T10:49:47.033Z,50.877136
2022-11-21T10:50:47.007Z,50.877136
2022-11-21T10:51:47.174Z,50.877132
2022-11-21T10:52:48.097Z,50.877113
2022-11-21T10:53:47.117Z,50.877151
2022-11-21T10:54:47.962Z,50.877129
2022-11-21T10:55:47.093Z,50.877136
2022-11-21T10:56:47.938Z,50.877083
2022-11-21T10:57:46.954Z,50.877125
2022-11-21T10:58:48.144Z,50.877144
2022-11-21T10:59:47.121Z,50.877140
2022-11-21T11:00:47.933Z,50.877144
2022-11-21T11:01:48.086Z,50.877155
2022-11-21T11:02:47.111Z,50.877151
2022-11-21T11:04:07.097Z,50.877151
2022-11-21T11:04:52.321Z,50.877155
2022-11-21T11:05:47.867Z,50.877163
2022-11-21T11:06:46.833Z,50.877144
2022-11-21T11:07:46.935Z,50.877110
2022-11-21T11:08:46.802Z,50.877129
2022-11-21T11:09:46.824Z,50.877136
2022-11-21T11:10:46.813Z,50.877155
2022-11-21T11:11:48.177Z,50.877148
2022-11-21T11:12:46.829Z,50.877159
2022-11-21T11:13:47.811Z,50.877151
2022-11-21T11:14:47.747Z,50.877136
2022-11-21T11:15:46.786Z,50.877121
2022-11-21T11:16:46.771Z,50.877106
2022-11-21T11:17:48.025Z,50.877071
2022-11-21T11:18:47.152Z,50.877125
2022-11-21T11:19:48.485Z,50.877121
2022-11-21T11:20:46.754Z,50.877125
2022-11-21T11:21:46.753Z,50.877136
2022-11-21T11:22:48.030Z,50.877155
2022-11-21T11:23:47.025Z,50.877136
2022-11-21T11:24:46.894Z,50.877151